Red Cliff, CO (81649)

1:34 PM MDT on August 31, 2015 (GMT -0600)
Sitzmark Lodge Vail Village | | Change Station
CLOSE
Current Station
Personal Weather Station
Location: Vail, CO
Elevation: 8189 ft
Nearby Weather Stations

Elev 8189 ft 39.64 °N, 106.38 °W | Updated 3 minutes ago

Rain
Rain
58.5 °F
Feels Like 58.5 °F
N
5.8
Wind Variable Wind from WSW

Today
High -- | Low -- °F
--% Chance of Precip.
Yesterday
High -- | Low -- °F
Precip. -- in
6:32 AM 7:38 PM
Waning Gibbous, 94% visible
Pressure 30.44 in
Visibility 10.0 miles
Clouds Mostly Cloudy 6500 ft
Mostly Cloudy 9000 ft
Dew Point 50 °F
Humidity 73%
Rainfall 0.11 in
Snow Depth Not available.
UV 6 out of 12
Pollen 10.10 out of 12
Air Quality Not available.
Flu Activity Not available.
SPECI KLXV 311931Z AUTO 30014G18KT 10SM VCTS BKN065 BKN090 16/04 A3044 RMK AO2 T01560044
Pressure 30.44 in
Visibility 10.0 miles
Clouds Mostly Cloudy 6500 ft
Mostly Cloudy 9000 ft
Dew Point 50 °F
Humidity 73%
Rainfall 0.11 in
Snow Depth Not available.
UV 6 out of 12
Pollen 10.10 out of 12
Air Quality Not available.
Flu Activity Not available.
SPECI KLXV 311931Z AUTO 30014G18KT 10SM VCTS BKN065 BKN090 16/04 A3044 RMK AO2 T01560044

10-Day Weather Forecast

×

Almanac

Astronomy

Aug. 31, 2015 Rise Set
Actual Time
Civil Twilight
Nautical Twilight
Astronomical Twilight
Moon
Length of Visible Light
Length of Day
Tomorrow will be .
, % of the Moon is Illuminated

Today's Extremes

State Highs State Lows

Community

WunderPhotos

Upload Photos

1,851,342 photos uploaded!

WunderBlogs® & News

Nearby

Air Quality

  Air Quality AQ Index Pollutant
Not available.

Snow Depth

Station Depth Elevation

Earthquake Activity

City Distance Mag. Time & Date
Minimum magnitude displayed is 2.5.

Coastal Water Temperatures

Place Temperature

Stations

Nearby Weather Stations

Station Location Temp. Windchill Dew Point Humidity Wind Precip. Elev Updated Type